createdAt,value
2018-12-01T00:00:20.621Z,26.83
2018-12-01T00:05:27.258Z,28.27
2018-12-01T00:07:56.125Z,26.43
2018-12-01T00:10:24.523Z,27.50
2018-12-01T00:12:53.218Z,25.53
2018-12-01T00:15:25.600Z,26.03
2018-12-01T00:17:54.409Z,26.17
2018-12-01T00:20:25.072Z,26.97
2018-12-01T00:22:53.419Z,26.63
2018-12-01T00:25:21.721Z,25.80
2018-12-01T00:27:50.039Z,27.10
2018-12-01T00:30:19.972Z,25.20
2018-12-01T00:32:49.419Z,26.07
2018-12-01T00:35:17.837Z,26.90
2018-12-01T00:37:46.280Z,26.13
2018-12-01T00:40:16.495Z,26.60
2018-12-01T00:42:47.820Z,25.73
2018-12-01T00:45:19.989Z,26.17
2018-12-01T00:47:51.198Z,26.03
2018-12-01T00:50:23.522Z,25.67
2018-12-01T00:52:53.421Z,27.27
2018-12-01T00:55:21.983Z,26.97
2018-12-01T00:57:50.356Z,25.63
2018-12-01T01:00:22.283Z,27.03
2018-12-01T01:02:58.259Z,26.27
2018-12-01T01:05:27.829Z,25.57
2018-12-01T01:07:57.167Z,26.13
2018-12-01T01:10:27.537Z,26.17
2018-12-01T01:12:55.832Z,26.17
2018-12-01T01:15:24.222Z,26.70
2018-12-01T01:17:52.570Z,26.03
2018-12-01T01:20:22.634Z,26.83
2018-12-01T01:22:51.539Z,25.77
2018-12-01T01:25:19.961Z,25.13
2018-12-01T01:27:48.398Z,26.33
2018-12-01T01:30:20.273Z,26.33
2018-12-01T01:32:49.161Z,26.50
2018-12-01T01:35:17.523Z,26.57
2018-12-01T01:37:45.925Z,27.13
2018-12-01T01:40:16.212Z,26.07
2018-12-01T01:42:44.618Z,25.30
2018-12-01T01:45:17.128Z,26.17
2018-12-01T01:47:45.513Z,26.37
2018-12-01T01:50:18.088Z,24.90
2018-12-01T01:52:46.464Z,26.83
2018-12-01T01:55:14.825Z,26.00
2018-12-01T01:57:43.164Z,25.47
2018-12-01T02:00:14.757Z,25.67
2018-12-01T02:02:51.453Z,26.63
2018-12-01T02:05:21.887Z,28.10
2018-12-01T02:07:50.437Z,27.70
2018-12-01T02:10:19.863Z,27.33
2018-12-01T02:12:48.167Z,27.63
2018-12-01T02:15:16.498Z,27.23
2018-12-01T02:17:44.836Z,27.20
2018-12-01T02:20:15.002Z,25.60
2018-12-01T02:22:44.621Z,27.27
2018-12-01T02:25:13.919Z,26.83
2018-12-01T02:27:42.363Z,26.93
2018-12-01T02:30:13.757Z,27.53
2018-12-01T02:32:42.751Z,27.90
2018-12-01T02:35:14.456Z,28.03
2018-12-01T02:37:42.812Z,28.93
2018-12-01T02:40:12.141Z,29.17
2018-12-01T02:42:41.544Z,28.53
2018-12-01T02:45:21.230Z,27.70
2018-12-01T02:47:49.562Z,27.13
2018-12-01T02:50:23.223Z,28.93
2018-12-01T02:52:52.288Z,29.03
2018-12-01T02:55:20.665Z,29.47
2018-12-01T02:57:49.018Z,27.10
2018-12-01T03:00:17.325Z,29.23
2018-12-01T03:02:45.666Z,29.93
2018-12-01T03:05:14.011Z,28.67
2018-12-01T03:07:42.325Z,28.47
2018-12-01T03:10:14.670Z,28.87
2018-12-01T03:12:43.003Z,29.07
2018-12-01T03:15:12.271Z,30.50
2018-12-01T03:17:40.659Z,29.70
2018-12-01T03:20:12.184Z,29.93
2018-12-01T03:22:40.524Z,29.80
2018-12-01T03:25:10.991Z,29.20
2018-12-01T03:27:39.300Z,30.57
2018-12-01T03:30:09.161Z,29.67
2018-12-01T03:32:37.727Z,31.03
2018-12-01T03:35:12.074Z,31.07
2018-12-01T03:37:42.878Z,32.03
2018-12-01T03:40:12.077Z,30.93
2018-12-01T03:42:40.416Z,30.53
2018-12-01T03:45:11.192Z,30.87
2018-12-01T03:47:39.705Z,31.17
2018-12-01T03:50:09.574Z,31.17
2018-12-01T03:52:37.900Z,31.37
2018-12-01T03:55:16.197Z,31.83
2018-12-01T03:57:44.523Z,32.83
2018-12-01T04:00:12.852Z,31.53
2018-12-01T04:02:41.208Z,29.97
2018-12-01T04:05:09.613Z,31.90
2018-12-01T04:07:37.945Z,33.37
2018-12-01T04:10:06.877Z,32.77
2018-12-01T04:12:35.211Z,32.10
2018-12-01T04:15:03.516Z,31.57
2018-12-01T04:17:31.889Z,32.30
2018-12-01T04:20:00.252Z,32.40
2018-12-01T04:22:28.626Z,32.20
2018-12-01T04:24:56.995Z,32.50
2018-12-01T04:27:25.373Z,33.80
2018-12-01T04:29:53.738Z,32.57
2018-12-01T04:32:22.062Z,33.43
2018-12-01T04:34:50.396Z,32.10
2018-12-01T04:37:18.755Z,33.93
2018-12-01T04:39:47.053Z,32.60
2018-12-01T04:42:15.396Z,32.23
2018-12-01T04:44:43.780Z,32.50
2018-12-01T04:47:12.106Z,34.37
2018-12-01T04:49:40.428Z,34.17
2018-12-01T04:52:08.771Z,34.37
2018-12-01T04:54:37.089Z,34.10
2018-12-01T04:57:05.673Z,34.13
2018-12-01T04:59:34.005Z,33.87
2018-12-01T05:02:03.042Z,33.67
2018-12-01T05:04:31.421Z,34.57
2018-12-01T05:06:59.802Z,33.83
2018-12-01T05:09:28.102Z,33.60
2018-12-01T05:11:56.452Z,35.33
2018-12-01T05:14:24.736Z,35.37
2018-12-01T05:16:53.033Z,34.83
2018-12-01T05:19:21.389Z,34.43
2018-12-01T05:21:49.702Z,34.97
2018-12-01T05:24:18.041Z,33.83
2018-12-01T05:26:46.387Z,34.83
2018-12-01T05:29:15.000Z,34.60
2018-12-01T05:31:43.323Z,36.67
2018-12-01T05:34:11.659Z,35.67
2018-12-01T05:36:39.941Z,34.80
2018-12-01T05:39:09.624Z,37.20
2018-12-01T05:41:37.921Z,34.00
2018-12-01T05:44:06.280Z,35.43
2018-12-01T05:46:34.632Z,33.57
2018-12-01T05:49:02.988Z,34.83
2018-12-01T05:51:31.366Z,34.20
2018-12-01T05:53:59.776Z,35.13
2018-12-01T05:56:28.100Z,35.03
2018-12-01T05:58:56.424Z,33.20
2018-12-01T06:01:24.708Z,33.83
2018-12-01T06:03:54.516Z,34.37
2018-12-01T06:06:22.874Z,34.00
2018-12-01T06:08:51.203Z,33.83
2018-12-01T06:11:19.545Z,32.30
2018-12-01T06:13:47.926Z,34.03
2018-12-01T06:16:16.294Z,34.60
2018-12-01T06:18:44.608Z,34.37
2018-12-01T06:21:12.944Z,34.13
2018-12-01T06:23:41.259Z,34.67
2018-12-01T06:26:09.537Z,36.07
2018-12-01T06:28:37.885Z,35.67
2018-12-01T06:31:06.235Z,34.03
2018-12-01T06:33:34.647Z,35.10
2018-12-01T06:36:03.000Z,34.20
2018-12-01T06:38:31.340Z,35.50
2018-12-01T06:40:59.654Z,34.70
2018-12-01T06:43:28.332Z,33.97
2018-12-01T06:45:56.633Z,35.17
2018-12-01T06:48:24.978Z,34.73
2018-12-01T06:50:53.338Z,36.13
2018-12-01T06:53:21.681Z,35.03
2018-12-01T06:55:50.050Z,36.73
2018-12-01T06:58:18.350Z,37.53
2018-12-01T07:00:46.724Z,38.90
2018-12-01T07:03:15.094Z,36.00
2018-12-01T07:05:43.765Z,36.50
2018-12-01T07:08:12.119Z,37.10
2018-12-01T07:10:41.276Z,36.83
2018-12-01T07:13:09.691Z,37.90
2018-12-01T07:15:39.014Z,36.60
2018-12-01T07:18:19.226Z,38.57
2018-12-01T07:20:47.564Z,35.40
2018-12-01T07:23:17.032Z,37.10
2018-12-01T07:25:44.285Z,37.20
2018-12-01T07:28:12.580Z,38.90
2018-12-01T07:30:40.900Z,36.63
2018-12-01T07:33:09.245Z,37.83
2018-12-01T07:35:37.733Z,38.93
2018-12-01T07:38:06.104Z,35.97
2018-12-01T07:40:34.437Z,36.23
2018-12-01T07:43:02.765Z,36.80
2018-12-01T07:45:31.188Z,36.07
2018-12-01T07:47:59.963Z,36.87
2018-12-01T07:50:28.356Z,35.23
2018-12-01T07:52:56.762Z,34.57
2018-12-01T07:55:25.066Z,34.63
2018-12-01T07:57:53.396Z,33.57
2018-12-01T08:00:21.797Z,34.13
2018-12-01T08:02:50.769Z,34.40
2018-12-01T08:05:19.144Z,37.83
2018-12-01T08:07:47.468Z,35.97
2018-12-01T08:10:16.443Z,34.73
2018-12-01T08:12:44.739Z,36.70
2018-12-01T08:15:15.071Z,37.47
2018-12-01T08:17:43.443Z,36.47
2018-12-01T08:20:12.757Z,36.67
2018-12-01T08:22:41.327Z,35.33
2018-12-01T08:25:17.574Z,35.93
2018-12-01T08:27:48.479Z,36.77
2018-12-01T08:30:20.957Z,35.93
2018-12-01T08:32:49.369Z,39.13
2018-12-01T08:35:17.742Z,36.50
2018-12-01T08:37:46.094Z,34.70
2018-12-01T08:40:16.749Z,34.23
2018-12-01T08:42:45.143Z,35.80
2018-12-01T08:45:13.436Z,35.13
2018-12-01T08:47:42.215Z,35.17
2018-12-01T08:50:12.831Z,33.37
2018-12-01T08:52:41.421Z,35.17
2018-12-01T08:55:11.176Z,34.90
2018-12-01T08:57:40.741Z,33.70
2018-12-01T09:00:11.255Z,38.07
2018-12-01T09:02:39.646Z,36.07
2018-12-01T09:05:08.265Z,32.93
2018-12-01T09:07:36.702Z,32.63
2018-12-01T09:10:07.082Z,33.93
2018-12-01T09:12:35.420Z,33.83
2018-12-01T09:15:04.101Z,34.13
2018-12-01T09:17:32.448Z,36.27
2018-12-01T09:20:01.807Z,34.40
2018-12-01T09:22:30.133Z,35.93
2018-12-01T09:24:58.484Z,37.27
2018-12-01T09:27:26.838Z,35.93
2018-12-01T09:29:55.212Z,35.80
2018-12-01T09:32:23.584Z,37.33
2018-12-01T09:34:51.896Z,33.50
2018-12-01T09:37:20.284Z,36.47
2018-12-01T09:39:48.600Z,34.10
2018-12-01T09:42:17.981Z,33.23
2018-12-01T09:44:46.306Z,34.60
2018-12-01T09:47:15.292Z,31.83
2018-12-01T09:49:43.645Z,34.47
2018-12-01T09:52:11.966Z,34.20
2018-12-01T09:54:40.305Z,34.73
2018-12-01T09:57:08.660Z,36.07
2018-12-01T09:59:36.949Z,34.03
2018-12-01T10:02:05.486Z,35.37
2018-12-01T10:04:33.798Z,34.33
2018-12-01T10:07:03.120Z,34.17
2018-12-01T10:09:30.998Z,33.30
2018-12-01T10:11:59.427Z,33.17
2018-12-01T10:14:27.722Z,34.67
2018-12-01T10:16:56.132Z,33.73
2018-12-01T10:19:24.484Z,34.13
2018-12-01T10:21:52.821Z,33.90
2018-12-01T10:24:21.193Z,33.17
2018-12-01T10:26:49.549Z,35.43
2018-12-01T10:29:17.949Z,36.97
2018-12-01T10:31:47.579Z,34.67
2018-12-01T10:34:16.198Z,34.27
2018-12-01T10:36:44.552Z,33.83
2018-12-01T10:39:13.042Z,32.20
2018-12-01T10:41:41.325Z,33.17
2018-12-01T10:44:09.654Z,33.43
2018-12-01T10:46:37.960Z,34.17
2018-12-01T10:49:06.284Z,32.20
2018-12-01T10:51:34.584Z,32.97
2018-12-01T10:54:03.025Z,32.13
2018-12-01T10:56:32.036Z,31.57
2018-12-01T10:59:00.944Z,31.83
2018-12-01T11:01:33.146Z,30.57
2018-12-01T11:04:06.109Z,32.40
2018-12-01T11:06:34.725Z,29.80
2018-12-01T11:09:03.122Z,31.27
2018-12-01T11:11:31.486Z,33.17
2018-12-01T11:13:59.809Z,31.03
2018-12-01T11:16:28.409Z,31.67
2018-12-01T11:18:56.794Z,30.10
2018-12-01T11:21:25.146Z,29.63
2018-12-01T11:23:53.858Z,30.00
2018-12-01T11:26:22.788Z,30.60
2018-12-01T11:28:51.293Z,31.33
2018-12-01T11:31:19.634Z,29.80
2018-12-01T11:33:47.928Z,29.37
2018-12-01T11:36:16.289Z,28.07
2018-12-01T11:38:44.599Z,28.27
2018-12-01T11:41:13.031Z,29.50
2018-12-01T11:43:41.337Z,27.80
2018-12-01T11:46:09.676Z,28.63
2018-12-01T11:48:38.096Z,26.77
2018-12-01T11:51:06.447Z,26.70
2018-12-01T11:53:34.821Z,26.23
2018-12-01T11:56:03.201Z,25.10
2018-12-01T11:58:31.548Z,24.53
2018-12-01T12:01:00.165Z,25.20
2018-12-01T12:03:29.043Z,25.87
2018-12-01T12:05:57.637Z,23.30
2018-12-01T12:08:27.780Z,24.23
2018-12-01T12:10:56.908Z,25.40
2018-12-01T12:13:28.148Z,25.20
2018-12-01T12:15:56.758Z,24.73
2018-12-01T12:18:25.163Z,24.87
2018-12-01T12:20:53.464Z,24.53
2018-12-01T12:23:21.793Z,25.10
2018-12-01T12:25:50.285Z,24.47
2018-12-01T12:28:18.632Z,27.13
2018-12-01T12:30:46.983Z,25.47
2018-12-01T12:33:15.337Z,25.10
2018-12-01T12:35:44.297Z,26.33
2018-12-01T12:38:12.598Z,23.63
2018-12-01T12:40:40.894Z,25.20
2018-12-01T12:43:09.224Z,24.20
2018-12-01T12:45:37.748Z,25.17
2018-12-01T12:48:07.143Z,23.63
2018-12-01T12:50:35.489Z,24.40
2018-12-01T12:53:03.832Z,24.77
2018-12-01T12:55:32.128Z,24.57
2018-12-01T12:58:00.960Z,24.67
2018-12-01T13:00:29.270Z,23.13
2018-12-01T13:02:59.876Z,24.47
2018-12-01T13:05:32.766Z,27.43
2018-12-01T13:08:01.244Z,24.33
2018-12-01T13:10:29.577Z,25.07
2018-12-01T13:12:57.945Z,26.43
2018-12-01T13:15:26.229Z,25.10
2018-12-01T13:17:54.581Z,31.77
2018-12-01T13:20:24.664Z,26.90
2018-12-01T13:22:56.217Z,26.27
2018-12-01T13:25:24.521Z,25.17
2018-12-01T13:28:01.556Z,24.53
2018-12-01T13:30:31.841Z,24.03
2018-12-01T13:33:00.184Z,23.70
2018-12-01T13:35:29.002Z,24.60
2018-12-01T13:37:57.288Z,25.97
2018-12-01T13:40:25.630Z,25.53
2018-12-01T13:42:53.959Z,25.67
2018-12-01T13:45:22.311Z,24.77
2018-12-01T13:47:51.009Z,23.50
2018-12-01T13:50:20.487Z,23.33
2018-12-01T13:52:54.079Z,24.23
2018-12-01T13:55:22.483Z,24.23
2018-12-01T13:57:51.940Z,24.17
2018-12-01T14:00:21.719Z,24.07
2018-12-01T14:02:50.652Z,25.97
2018-12-01T14:05:18.967Z,26.87
2018-12-01T14:07:47.320Z,25.83
2018-12-01T14:10:23.355Z,27.13
2018-12-01T14:13:01.518Z,26.40
2018-12-01T14:15:30.048Z,27.60
2018-12-01T14:17:58.377Z,28.00
2018-12-01T14:20:26.891Z,28.97
2018-12-01T14:22:56.118Z,29.23
2018-12-01T14:25:24.436Z,29.67
2018-12-01T14:27:58.057Z,31.13
2018-12-01T14:30:26.890Z,31.60
2018-12-01T14:32:55.245Z,33.60
2018-12-01T14:35:25.051Z,38.40
2018-12-01T14:37:55.185Z,36.90
2018-12-01T14:40:23.520Z,38.27
2018-12-01T14:42:51.792Z,38.17
2018-12-01T14:45:20.128Z,35.90
2018-12-01T14:47:49.175Z,33.63
2018-12-01T14:50:17.473Z,35.20
2018-12-01T14:52:47.725Z,37.07
2018-12-01T14:55:17.515Z,38.83
2018-12-01T14:57:46.638Z,42.77
2018-12-01T15:00:23.096Z,41.63
2018-12-01T15:02:52.199Z,38.17
2018-12-01T15:05:20.544Z,40.47
2018-12-01T15:07:49.541Z,41.30
2018-12-01T15:10:23.033Z,42.10
2018-12-01T15:12:51.416Z,41.57
2018-12-01T15:15:22.005Z,43.07
2018-12-01T15:17:50.318Z,39.80
2018-12-01T15:20:19.709Z,39.13
2018-12-01T15:22:49.312Z,39.60
2018-12-01T15:25:19.609Z,36.97
2018-12-01T15:27:48.006Z,38.37
2018-12-01T15:30:23.433Z,37.90
2018-12-01T15:32:59.226Z,36.37
2018-12-01T15:35:28.356Z,35.90
2018-12-01T15:37:57.664Z,36.17
2018-12-01T15:40:26.058Z,37.77
2018-12-01T15:42:54.513Z,39.97
2018-12-01T15:45:23.178Z,39.87
2018-12-01T15:47:52.269Z,41.30
2018-12-01T15:50:22.032Z,43.07
2018-12-01T15:52:53.837Z,42.70
2018-12-01T15:55:22.793Z,40.63
2018-12-01T15:57:51.388Z,40.33
2018-12-01T16:00:28.680Z,37.90
2018-12-01T16:02:57.066Z,38.47
2018-12-01T16:05:25.522Z,39.70
2018-12-01T16:07:56.069Z,37.63
2018-12-01T16:10:24.792Z,40.20
2018-12-01T16:12:58.154Z,39.83
2018-12-01T16:15:32.919Z,42.37
2018-12-01T16:18:01.276Z,43.33
2018-12-01T16:20:29.645Z,41.90
2018-12-01T16:22:57.995Z,48.90
2018-12-01T16:25:26.912Z,44.17
2018-12-01T16:27:55.267Z,44.57
2018-12-01T16:30:30.101Z,42.03
2018-12-01T16:33:00.500Z,42.90
2018-12-01T16:35:28.859Z,40.43
2018-12-01T16:37:57.480Z,44.17
2018-12-01T16:40:30.476Z,45.13
2018-12-01T16:43:00.209Z,43.40
2018-12-01T16:45:28.588Z,40.83
2018-12-01T16:47:57.844Z,44.97
2018-12-01T16:50:26.221Z,40.97
2018-12-01T16:52:54.611Z,39.53
2018-12-01T16:55:23.094Z,38.87
2018-12-01T16:57:51.715Z,39.23
2018-12-01T17:00:21.320Z,37.13
2018-12-01T17:02:52.194Z,34.83
2018-12-01T17:05:21.353Z,35.00
2018-12-01T17:07:50.115Z,35.03
2018-12-01T17:10:19.758Z,36.00
2018-12-01T17:12:49.872Z,35.83
2018-12-01T17:15:19.383Z,33.47
2018-12-01T17:17:48.179Z,34.50
2018-12-01T17:20:17.530Z,33.23
2018-12-01T17:22:50.334Z,31.33
2018-12-01T17:25:18.929Z,28.60
2018-12-01T17:27:48.030Z,29.80
2018-12-01T17:30:21.581Z,26.63
2018-12-01T17:32:50.404Z,25.90
2018-12-01T17:35:22.103Z,24.77
2018-12-01T17:37:52.810Z,24.80
2018-12-01T17:41:28.987Z,28.03
2018-12-01T17:44:04.526Z,30.80
2018-12-01T17:46:33.776Z,30.37
2018-12-01T17:49:02.190Z,31.13
2018-12-01T17:51:30.868Z,31.80
2018-12-01T17:54:01.397Z,31.97
2018-12-01T17:56:29.808Z,32.33
2018-12-01T17:58:58.144Z,32.13
2018-12-01T18:01:26.627Z,29.30
2018-12-01T18:03:55.002Z,28.10
2018-12-01T18:06:23.348Z,29.37
2018-12-01T18:08:52.581Z,29.97
2018-12-01T18:11:20.863Z,28.27
2018-12-01T18:13:49.206Z,28.77
2018-12-01T18:16:18.142Z,29.23
2018-12-01T18:18:46.708Z,28.50
2018-12-01T18:21:15.107Z,27.30
2018-12-01T18:23:43.682Z,27.93
2018-12-01T18:26:12.397Z,30.07
2018-12-01T18:28:43.375Z,26.93
2018-12-01T18:31:16.256Z,27.83
2018-12-01T18:33:46.343Z,33.60
2018-12-01T18:36:15.148Z,30.60
2018-12-01T18:38:45.463Z,29.77
2018-12-01T18:41:14.042Z,27.23
2018-12-01T18:43:42.503Z,27.03
2018-12-01T18:46:12.877Z,29.00
2018-12-01T18:48:41.875Z,29.77
2018-12-01T18:51:10.584Z,30.33
2018-12-01T18:53:39.322Z,30.40
2018-12-01T18:56:08.731Z,29.97
2018-12-01T18:58:37.784Z,29.90
2018-12-01T19:01:07.941Z,29.43
2018-12-01T19:03:38.051Z,30.77
2018-12-01T19:06:07.432Z,30.37
2018-12-01T19:08:36.583Z,31.00
2018-12-01T19:11:06.705Z,37.40
2018-12-01T19:13:35.995Z,31.73
2018-12-01T19:16:04.535Z,30.23
2018-12-01T19:18:33.058Z,29.07
2018-12-01T19:21:02.158Z,26.13
2018-12-01T19:23:33.691Z,26.00
2018-12-01T19:26:02.400Z,25.70
2018-12-01T19:28:30.878Z,26.70
2018-12-01T19:30:59.162Z,26.87
2018-12-01T19:33:27.568Z,26.87
2018-12-01T19:35:55.931Z,26.70
2018-12-01T19:38:26.929Z,23.27
2018-12-01T19:40:56.504Z,22.93
2018-12-01T19:43:25.401Z,23.10
2018-12-01T19:45:54.565Z,21.47
2018-12-01T19:48:24.268Z,22.10
2018-12-01T19:50:53.028Z,19.10
2018-12-01T19:53:22.041Z,22.00
2018-12-01T19:55:52.171Z,24.07
2018-12-01T19:58:23.296Z,22.63
2018-12-01T20:00:56.027Z,25.50
2018-12-01T20:03:25.739Z,31.77
2018-12-01T20:05:54.387Z,23.47
2018-12-01T20:08:23.966Z,21.20
2018-12-01T20:10:58.612Z,20.27
2018-12-01T20:13:43.877Z,21.63
2018-12-01T20:16:22.037Z,21.27
2018-12-01T20:18:50.584Z,23.23
2018-12-01T20:21:19.193Z,21.67
2018-12-01T20:23:47.620Z,22.67
2018-12-01T20:26:16.361Z,22.97
2018-12-01T20:28:44.807Z,22.63
2018-12-01T20:31:13.995Z,23.33
2018-12-01T20:33:43.116Z,24.00
2018-12-01T20:36:16.681Z,21.70
2018-12-01T20:38:58.103Z,23.00
2018-12-01T20:41:27.324Z,22.57
2018-12-01T20:43:55.654Z,21.97
2018-12-01T20:46:24.026Z,20.87
2018-12-01T20:48:53.001Z,19.20
2018-12-01T20:51:22.325Z,21.60
2018-12-01T20:53:51.107Z,23.37
2018-12-01T20:56:22.547Z,34.27
2018-12-01T20:58:51.229Z,30.80
2018-12-01T21:01:19.632Z,32.27
2018-12-01T21:03:48.719Z,23.90
2018-12-01T21:06:17.687Z,25.90
2018-12-01T21:08:46.054Z,23.27
2018-12-01T21:11:16.824Z,21.67
2018-12-01T21:13:45.927Z,22.93
2018-12-01T21:16:14.893Z,21.33
2018-12-01T21:18:43.383Z,21.87
2018-12-01T21:21:12.098Z,21.23
2018-12-01T21:23:41.826Z,22.93
2018-12-01T21:26:10.547Z,21.10
2018-12-01T21:28:40.756Z,18.27
2018-12-01T21:31:11.176Z,18.37
2018-12-01T21:33:40.118Z,17.87
2018-12-01T21:36:09.501Z,19.23
2018-12-01T21:38:39.623Z,18.43
2018-12-01T21:41:09.057Z,17.20
2018-12-01T21:43:39.509Z,17.93
2018-12-01T21:46:12.509Z,17.30
2018-12-01T21:48:41.404Z,17.77
2018-12-01T21:51:10.039Z,16.33
2018-12-01T21:53:40.784Z,17.37
2018-12-01T21:56:09.410Z,17.13
2018-12-01T21:58:39.484Z,16.70
2018-12-01T22:01:08.813Z,16.00
2018-12-01T22:03:37.845Z,16.27
2018-12-01T22:06:09.944Z,16.63
2018-12-01T22:08:39.632Z,17.43
2018-12-01T22:11:09.207Z,16.23
2018-12-01T22:13:38.640Z,16.50
2018-12-01T22:16:09.633Z,15.57
2018-12-01T22:18:39.052Z,16.03
2018-12-01T22:21:07.881Z,15.57
2018-12-01T22:23:37.437Z,14.90
2018-12-01T22:26:07.441Z,15.37
2018-12-01T22:28:36.157Z,16.23
2018-12-01T22:31:04.664Z,15.67
2018-12-01T22:33:34.228Z,16.30
2018-12-01T22:36:03.019Z,16.93
2018-12-01T22:38:32.518Z,16.40
2018-12-01T22:41:02.733Z,16.77
2018-12-01T22:43:32.346Z,16.10
2018-12-01T22:46:00.720Z,14.93
2018-12-01T22:48:30.917Z,14.43
2018-12-01T22:50:59.730Z,16.67
2018-12-01T22:53:29.243Z,14.80
2018-12-01T22:55:58.819Z,14.90
2018-12-01T22:58:31.025Z,14.67
2018-12-01T23:01:00.672Z,14.80
2018-12-01T23:03:30.732Z,14.17
2018-12-01T23:05:59.449Z,14.27
2018-12-01T23:08:29.528Z,17.10
2018-12-01T23:10:58.812Z,14.57
2018-12-01T23:13:29.181Z,14.87
2018-12-01T23:15:57.641Z,15.47
2018-12-01T23:18:26.970Z,14.80
2018-12-01T23:20:56.765Z,14.77
2018-12-01T23:23:27.390Z,14.20
2018-12-01T23:25:56.853Z,13.33
2018-12-01T23:28:25.538Z,15.30
2018-12-01T23:30:55.666Z,16.13
2018-12-01T23:33:25.850Z,15.20
2018-12-01T23:35:54.466Z,15.27
2018-12-01T23:38:23.830Z,14.07
2018-12-01T23:40:52.560Z,14.00
2018-12-01T23:43:21.106Z,39.43
2018-12-01T23:45:50.494Z,18.07
2018-12-01T23:48:19.570Z,15.93
2018-12-01T23:50:51.364Z,15.93
2018-12-01T23:53:19.806Z,13.87
2018-12-01T23:55:49.515Z,14.57
2018-12-01T23:58:18.571Z,14.83
